Kramer Junction, CA

6:04 AM PST on January 19, 2017 (GMT -0800)
MAU536 | | Change Station

Elev 2450 ft 35.00 °N, 117.65 °W | Updated 49 minutes ago

Overcast
Overcast
43.0 °F
Feels Like 41 °F
N
4.0
Wind Variable Wind from SW
Gusts 9.0 mph

Today
High -- | Low -- °F
--% Chance of Precip.
Yesterday
High -- | Low -- °F
Precip. -- in
Pressure 29.86 in
Visibility 10.0 miles
Clouds Few 2700 ft
Mostly Cloudy 3500 ft
Mostly Cloudy 5000 ft
Windchill 41 °F
Dew Point 40 °F
Humidity 90%
Rainfall 0.23 in
Snow Depth Not available.
6:56 AM 5:06 PM
Waning Gibbous, 53% visible
METAR K9L2 191358Z AUTO 24006KT 10SM FEW027 BKN035 BKN050 07/06 A2986 RMK AO2 RAE51 SLP111 P0001 T00660056
Pressure 29.86 in
Visibility 10.0 miles
Clouds Few 2700 ft
Mostly Cloudy 3500 ft
Mostly Cloudy 5000 ft
Windchill 41 °F
Dew Point 40 °F
Humidity 90%
Rainfall 0.23 in
Snow Depth Not available.
6:56 AM 5:06 PM
Waning Gibbous, 53% visible
METAR K9L2 191358Z AUTO 24006KT 10SM FEW027 BKN035 BKN050 07/06 A2986 RMK AO2 RAE51 SLP111 P0001 T00660056

Get Your Daily Forecast Email!

Thanks for signing up!

Be on the lookout for a verification email in your inbox.

You'll start receiving the daily forecast at 8 AM.

×

10-Day Weather Forecast

Almanac

Astronomy

Jan. 19, 2017 Rise Set
Actual Time
Civil Twilight
Nautical Twilight
Astronomical Twilight
Moon
Length of Visible Light
Length of Day
Tomorrow will be .
, % of the Moon is Illuminated

Today's Extremes

State Highs State Lows

Community

WunderPhotos

Upload Photos

1,962,540 photos uploaded!

WunderBlog® & News

Nearby

Air Quality

  Air Quality AQ Index Pollutant
Not available.

Snow Depth

Station Depth Elevation

Earthquake Activity

City Distance Mag. Time & Date
Minimum magnitude displayed is 2.5.

Coastal Water Temperatures

Place Temperature

Stations

Nearby Weather Stations

Station Location Temp. Windchill Dew Point Humidity Wind Precip. Elev Updated Type
                   

Watches & Warnings

There are currently no watches in effect.